sensor_id;sensor_type;location;lat;lon;timestamp;noise_LAeq;noise_LA_min;noise_LA_max;noise_LA01;noise_LA95
66463;Laerm;56827;52.178;4.500;2023-08-24T00:00:06;31.79;30.12;33.05;;
66463;Laerm;56827;52.178;4.500;2023-08-24T00:00:17;31.63;30.33;33.22;;
66463;Laerm;56827;52.178;4.500;2023-08-24T00:00:28;31.54;30.09;33.05;;
66463;Laerm;56827;52.178;4.500;2023-08-24T00:00:38;33.48;30.30;41.85;;
66463;Laerm;56827;52.178;4.500;2023-08-24T00:00:49;32.55;30.72;38.03;;
66463;Laerm;56827;52.178;4.500;2023-08-24T00:00:59;32.18;30.61;41.15;;
66463;Laerm;56827;52.178;4.500;2023-08-24T00:01:12;31.74;30.20;33.03;;
66463;Laerm;56827;52.178;4.500;2023-08-24T00:01:22;32.06;30.10;33.55;;
66463;Laerm;56827;52.178;4.500;2023-08-24T00:01:33;32.04;29.75;38.70;;
66463;Laerm;56827;52.178;4.500;2023-08-24T00:01:43;31.67;30.17;33.09;;
66463;Laerm;56827;52.178;4.500;2023-08-24T00:01:53;31.57;29.90;32.88;;
66463;Laerm;56827;52.178;4.500;2023-08-24T00:02:03;31.54;30.21;32.56;;
66463;Laerm;56827;52.178;4.500;2023-08-24T00:02:14;31.86;30.32;33.09;;
66463;Laerm;56827;52.178;4.500;2023-08-24T00:02:24;32.10;30.34;35.21;;
66463;Laerm;56827;52.178;4.500;2023-08-24T00:02:34;32.08;30.82;33.84;;
66463;Laerm;56827;52.178;4.500;2023-08-24T00:02:44;32.04;30.43;34.03;;
66463;Laerm;56827;52.178;4.500;2023-08-24T00:02:55;32.16;30.37;34.97;;
66463;Laerm;56827;52.178;4.500;2023-08-24T00:03:05;31.66;30.23;33.76;;
66463;Laerm;56827;52.178;4.500;2023-08-24T00:03:15;31.89;29.83;33.39;;
66463;Laerm;56827;52.178;4.500;2023-08-24T00:03:26;32.19;30.35;33.43;;
66463;Laerm;56827;52.178;4.500;2023-08-24T00:03:36;31.92;30.40;33.50;;
66463;Laerm;56827;52.178;4.500;2023-08-24T00:03:47;32.41;30.23;36.28;;
66463;Laerm;56827;52.178;4.500;2023-08-24T00:03:58;32.22;30.88;34.39;;
66463;Laerm;56827;52.178;4.500;2023-08-24T00:04:08;32.56;30.83;38.51;;
66463;Laerm;56827;52.178;4.500;2023-08-24T00:04:19;32.21;30.43;33.74;;
66463;Laerm;56827;52.178;4.500;2023-08-24T00:04:29;32.87;30.93;35.05;;
66463;Laerm;56827;52.178;4.500;2023-08-24T00:04:39;32.45;30.92;33.82;;
66463;Laerm;56827;52.178;4.500;2023-08-24T00:04:49;32.23;30.34;35.43;;
66463;Laerm;56827;52.178;4.500;2023-08-24T00:05:00;32.16;30.21;34.71;;
66463;Laerm;56827;52.178;4.500;2023-08-24T00:05:10;32.87;30.97;36.51;;
66463;Laerm;56827;52.178;4.500;2023-08-24T00:05:21;32.32;30.16;34.08;;
66463;Laerm;56827;52.178;4.500;2023-08-24T00:05:34;32.34;30.61;38.65;;
66463;Laerm;56827;52.178;4.500;2023-08-24T00:05:47;32.49;30.53;39.31;;
66463;Laerm;56827;52.178;4.500;2023-08-24T00:05:57;32.25;30.32;33.70;;
66463;Laerm;56827;52.178;4.500;2023-08-24T00:06:07;32.17;30.52;34.54;;
66463;Laerm;56827;52.178;4.500;2023-08-24T00:06:17;32.30;30.39;41.06;;
66463;Laerm;56827;52.178;4.500;2023-08-24T00:06:28;31.92;29.85;33.52;;
66463;Laerm;56827;52.178;4.500;2023-08-24T00:06:38;32.02;30.52;34.01;;
66463;Laerm;56827;52.178;4.500;2023-08-24T00:06:48;32.02;30.51;36.02;;
66463;Laerm;56827;52.178;4.500;2023-08-24T00:06:58;31.74;30.20;32.94;;
66463;Laerm;56827;52.178;4.500;2023-08-24T00:07:09;31.90;30.07;39.33;;
66463;Laerm;56827;52.178;4.500;2023-08-24T00:07:19;31.92;30.21;33.20;;
66463;Laerm;56827;52.178;4.500;2023-08-24T00:07:29;31.78;30.67;33.39;;
66463;Laerm;56827;52.178;4.500;2023-08-24T00:07:40;31.88;30.30;33.31;;
66463;Laerm;56827;52.178;4.500;2023-08-24T00:07:50;31.94;30.45;33.12;;
66463;Laerm;56827;52.178;4.500;2023-08-24T00:08:01;31.98;30.57;33.93;;
66463;Laerm;56827;52.178;4.500;2023-08-24T00:08:11;31.92;30.82;33.40;;
66463;Laerm;56827;52.178;4.500;2023-08-24T00:08:21;32.07;30.37;33.66;;
66463;Laerm;56827;52.178;4.500;2023-08-24T00:08:32;32.77;30.98;34.49;;
66463;Laerm;56827;52.178;4.500;2023-08-24T00:08:42;32.27;30.58;34.12;;
66463;Laerm;56827;52.178;4.500;2023-08-24T00:08:53;31.96;30.64;35.64;;
66463;Laerm;56827;52.178;4.500;2023-08-24T00:09:03;31.96;30.25;35.05;;
66463;Laerm;56827;52.178;4.500;2023-08-24T00:09:15;32.18;30.53;34.12;;
66463;Laerm;56827;52.178;4.500;2023-08-24T00:09:26;32.66;31.12;34.64;;
66463;Laerm;56827;52.178;4.500;2023-08-24T00:09:36;31.92;30.36;34.74;;
66463;Laerm;56827;52.178;4.500;2023-08-24T00:09:47;32.11;30.60;33.21;;
66463;Laerm;56827;52.178;4.500;2023-08-24T00:09:58;32.71;30.89;35.78;;
66463;Laerm;56827;52.178;4.500;2023-08-24T00:10:08;32.96;31.37;34.70;;
66463;Laerm;56827;52.178;4.500;2023-08-24T00:10:18;33.32;31.45;35.72;;
66463;Laerm;56827;52.178;4.500;2023-08-24T00:10:29;34.01;31.84;37.43;;
66463;Laerm;56827;52.178;4.500;2023-08-24T00:10:39;33.78;31.28;40.34;;
66463;Laerm;56827;52.178;4.500;2023-08-24T00:10:49;33.49;30.88;37.84;;
66463;Laerm;56827;52.178;4.500;2023-08-24T00:10:59;34.06;31.47;38.61;;
66463;Laerm;56827;52.178;4.500;2023-08-24T00:11:10;33.88;31.05;38.01;;
66463;Laerm;56827;52.178;4.500;2023-08-24T00:11:24;33.72;31.69;38.42;;
66463;Laerm;56827;52.178;4.500;2023-08-24T00:11:35;33.12;30.49;37.46;;
66463;Laerm;56827;52.178;4.500;2023-08-24T00:11:45;32.83;30.81;37.82;;
66463;Laerm;56827;52.178;4.500;2023-08-24T00:11:55;32.96;30.85;38.28;;
66463;Laerm;56827;52.178;4.500;2023-08-24T00:12:06;32.87;30.98;37.85;;
66463;Laerm;56827;52.178;4.500;2023-08-24T00:12:16;32.66;30.95;35.45;;
66463;Laerm;56827;52.178;4.500;2023-08-24T00:12:26;32.18;30.14;33.97;;
66463;Laerm;56827;52.178;4.500;2023-08-24T00:12:37;32.38;30.80;34.04;;
66463;Laerm;56827;52.178;4.500;2023-08-24T00:12:47;32.68;30.64;35.47;;
66463;Laerm;56827;52.178;4.500;2023-08-24T00:12:57;32.17;30.26;34.06;;
66463;Laerm;56827;52.178;4.500;2023-08-24T00:13:08;32.29;30.62;34.20;;
66463;Laerm;56827;52.178;4.500;2023-08-24T00:13:18;32.57;31.19;34.00;;
66463;Laerm;56827;52.178;4.500;2023-08-24T00:13:28;34.49;32.01;38.60;;
66463;Laerm;56827;52.178;4.500;2023-08-24T00:13:39;32.93;30.59;38.77;;
66463;Laerm;56827;52.178;4.500;2023-08-24T00:13:49;32.35;29.89;33.98;;
66463;Laerm;56827;52.178;4.500;2023-08-24T00:14:01;32.13;30.74;33.53;;
66463;Laerm;56827;52.178;4.500;2023-08-24T00:14:12;32.95;31.12;35.58;;
66463;Laerm;56827;52.178;4.500;2023-08-24T00:14:23;34.63;30.64;40.08;;
66463;Laerm;56827;52.178;4.500;2023-08-24T00:14:33;32.39;30.61;34.72;;
66463;Laerm;56827;52.178;4.500;2023-08-24T00:14:43;32.18;30.21;35.92;;
66463;Laerm;56827;52.178;4.500;2023-08-24T00:14:53;31.69;30.35;32.68;;
66463;Laerm;56827;52.178;4.500;2023-08-24T00:15:04;31.98;30.06;33.77;;
66463;Laerm;56827;52.178;4.500;2023-08-24T00:15:14;31.90;29.89;35.15;;
66463;Laerm;56827;52.178;4.500;2023-08-24T00:15:24;31.58;30.06;33.05;;
66463;Laerm;56827;52.178;4.500;2023-08-24T00:15:34;31.87;30.49;33.22;;
66463;Laerm;56827;52.178;4.500;2023-08-24T00:15:45;31.59;30.30;33.05;;
66463;Laerm;56827;52.178;4.500;2023-08-24T00:15:56;32.15;30.70;34.04;;
66463;Laerm;56827;52.178;4.500;2023-08-24T00:16:06;31.66;29.54;32.87;;
66463;Laerm;56827;52.178;4.500;2023-08-24T00:16:17;31.85;29.90;33.49;;
66463;Laerm;56827;52.178;4.500;2023-08-24T00:16:27;33.00;30.89;34.88;;
66463;Laerm;56827;52.178;4.500;2023-08-24T00:16:38;32.37;30.86;36.07;;
66463;Laerm;56827;52.178;4.500;2023-08-24T00:16:48;32.03;30.44;35.72;;
66463;Laerm;56827;52.178;4.500;2023-08-24T00:16:59;31.97;30.45;33.34;;
66463;Laerm;56827;52.178;4.500;2023-08-24T00:17:09;31.94;30.04;33.46;;
66463;Laerm;56827;52.178;4.500;2023-08-24T00:17:19;32.68;31.32;34.30;;
66463;Laerm;56827;52.178;4.500;2023-08-24T00:17:30;32.12;30.71;33.31;;
66463;Laerm;56827;52.178;4.500;2023-08-24T00:17:40;31.61;30.20;33.12;;
66463;Laerm;56827;52.178;4.500;2023-08-24T00:17:50;31.38;29.58;32.61;;
66463;Laerm;56827;52.178;4.500;2023-08-24T00:18:00;31.50;29.98;36.62;;
66463;Laerm;56827;52.178;4.500;2023-08-24T00:18:11;31.61;29.91;33.01;;
66463;Laerm;56827;52.178;4.500;2023-08-24T00:18:21;31.80;30.61;32.96;;
66463;Laerm;56827;52.178;4.500;2023-08-24T00:18:34;32.30;30.35;37.05;;
66463;Laerm;56827;52.178;4.500;2023-08-24T00:18:44;31.65;30.37;33.09;;
66463;Laerm;56827;52.178;4.500;2023-08-24T00:18:55;31.81;30.18;35.75;;
66463;Laerm;56827;52.178;4.500;2023-08-24T00:19:05;32.40;30.92;41.32;;
66463;Laerm;56827;52.178;4.500;2023-08-24T00:19:15;32.06;30.18;36.15;;
66463;Laerm;56827;52.178;4.500;2023-08-24T00:19:26;32.36;30.75;39.23;;
66463;Laerm;56827;52.178;4.500;2023-08-24T00:19:36;32.88;30.92;41.30;;
66463;Laerm;56827;52.178;4.500;2023-08-24T00:19:46;32.30;30.69;37.49;;
66463;Laerm;56827;52.178;4.500;2023-08-24T00:19:56;34.07;31.97;45.47;;
66463;Laerm;56827;52.178;4.500;2023-08-24T00:20:07;35.30;31.03;53.36;;
66463;Laerm;56827;52.178;4.500;2023-08-24T00:20:20;36.13;31.59;51.52;;
66463;Laerm;56827;52.178;4.500;2023-08-24T00:20:31;38.67;33.28;47.66;;
66463;Laerm;56827;52.178;4.500;2023-08-24T00:20:42;43.23;37.59;54.30;;
66463;Laerm;56827;52.178;4.500;2023-08-24T00:20:52;43.74;39.53;49.96;;
66463;Laerm;56827;52.178;4.500;2023-08-24T00:21:03;43.77;38.79;53.17;;
66463;Laerm;56827;52.178;4.500;2023-08-24T00:21:13;44.04;38.17;60.87;;
66463;Laerm;56827;52.178;4.500;2023-08-24T00:21:26;45.05;38.41;59.10;;
66463;Laerm;56827;52.178;4.500;2023-08-24T00:21:37;43.61;38.50;55.06;;
66463;Laerm;56827;52.178;4.500;2023-08-24T00:21:47;43.99;37.48;55.84;;
66463;Laerm;56827;52.178;4.500;2023-08-24T00:21:57;43.91;37.00;54.83;;
66463;Laerm;56827;52.178;4.500;2023-08-24T00:22:08;42.52;37.75;51.07;;
66463;Laerm;56827;52.178;4.500;2023-08-24T00:22:19;43.02;36.18;56.52;;
66463;Laerm;56827;52.178;4.500;2023-08-24T00:22:29;42.40;37.36;57.04;;
66463;Laerm;56827;52.178;4.500;2023-08-24T00:22:39;42.02;36.99;50.93;;
66463;Laerm;56827;52.178;4.500;2023-08-24T00:22:50;41.40;36.21;50.16;;
66463;Laerm;56827;52.178;4.500;2023-08-24T00:23:00;41.71;36.30;58.05;;
66463;Laerm;56827;52.178;4.500;2023-08-24T00:23:10;40.93;36.05;51.40;;
66463;Laerm;56827;52.178;4.500;2023-08-24T00:23:21;41.28;35.52;54.72;;
66463;Laerm;56827;52.178;4.500;2023-08-24T00:23:31;41.17;35.19;55.98;;
66463;Laerm;56827;52.178;4.500;2023-08-24T00:23:41;39.36;34.72;48.40;;
66463;Laerm;56827;52.178;4.500;2023-08-24T00:23:52;39.82;34.29;59.07;;
66463;Laerm;56827;52.178;4.500;2023-08-24T00:24:02;37.29;33.44;44.96;;
66463;Laerm;56827;52.178;4.500;2023-08-24T00:24:13;37.74;33.49;48.47;;
66463;Laerm;56827;52.178;4.500;2023-08-24T00:24:23;37.72;34.20;51.81;;
66463;Laerm;56827;52.178;4.500;2023-08-24T00:24:34;36.78;32.88;46.09;;
66463;Laerm;56827;52.178;4.500;2023-08-24T00:24:44;36.83;33.00;48.41;;
66463;Laerm;56827;52.178;4.500;2023-08-24T00:24:54;36.39;33.03;49.52;;
66463;Laerm;56827;52.178;4.500;2023-08-24T00:25:08;35.97;32.65;47.91;;
66463;Laerm;56827;52.178;4.500;2023-08-24T00:25:19;35.78;31.91;46.52;;
66463;Laerm;56827;52.178;4.500;2023-08-24T00:25:29;35.30;32.09;43.54;;
66463;Laerm;56827;52.178;4.500;2023-08-24T00:25:39;34.98;31.66;51.53;;
66463;Laerm;56827;52.178;4.500;2023-08-24T00:25:53;35.47;32.71;44.80;;
66463;Laerm;56827;52.178;4.500;2023-08-24T00:26:03;34.74;32.18;42.29;;
66463;Laerm;56827;52.178;4.500;2023-08-24T00:26:13;33.96;31.74;40.00;;
66463;Laerm;56827;52.178;4.500;2023-08-24T00:26:26;34.15;31.27;44.12;;
66463;Laerm;56827;52.178;4.500;2023-08-24T00:26:37;36.37;32.95;41.08;;
66463;Laerm;56827;52.178;4.500;2023-08-24T00:26:47;41.72;36.25;47.15;;
66463;Laerm;56827;52.178;4.500;2023-08-24T00:26:57;43.34;39.11;47.57;;
66463;Laerm;56827;52.178;4.500;2023-08-24T00:27:07;44.83;40.80;49.46;;
66463;Laerm;56827;52.178;4.500;2023-08-24T00:27:17;42.44;36.66;48.45;;
66463;Laerm;56827;52.178;4.500;2023-08-24T00:27:28;36.82;33.02;43.69;;
66463;Laerm;56827;52.178;4.500;2023-08-24T00:27:38;33.59;31.33;36.65;;
66463;Laerm;56827;52.178;4.500;2023-08-24T00:27:49;32.66;31.11;40.64;;
66463;Laerm;56827;52.178;4.500;2023-08-24T00:27:59;32.43;31.10;38.50;;
66463;Laerm;56827;52.178;4.500;2023-08-24T00:28:09;32.36;30.90;35.27;;
66463;Laerm;56827;52.178;4.500;2023-08-24T00:28:19;31.58;29.76;33.88;;
66463;Laerm;56827;52.178;4.500;2023-08-24T00:28:30;32.45;30.51;38.81;;
66463;Laerm;56827;52.178;4.500;2023-08-24T00:28:40;31.84;30.53;36.81;;
66463;Laerm;56827;52.178;4.500;2023-08-24T00:28:50;31.60;30.40;34.32;;
66463;Laerm;56827;52.178;4.500;2023-08-24T00:29:01;31.44;29.94;33.73;;
66463;Laerm;56827;52.178;4.500;2023-08-24T00:29:11;31.81;30.30;33.60;;
66463;Laerm;56827;52.178;4.500;2023-08-24T00:29:21;32.11;30.32;35.18;;
66463;Laerm;56827;52.178;4.500;2023-08-24T00:29:32;33.48;30.19;45.42;;
66463;Laerm;56827;52.178;4.500;2023-08-24T00:29:42;31.60;29.68;38.90;;
66463;Laerm;56827;52.178;4.500;2023-08-24T00:29:52;31.11;29.73;33.28;;
66463;Laerm;56827;52.178;4.500;2023-08-24T00:30:03;31.39;29.77;38.74;;
66463;Laerm;56827;52.178;4.500;2023-08-24T00:30:14;30.94;29.58;32.88;;
66463;Laerm;56827;52.178;4.500;2023-08-24T00:30:25;30.92;29.47;33.50;;
66463;Laerm;56827;52.178;4.500;2023-08-24T00:30:36;31.31;30.10;34.89;;
66463;Laerm;56827;52.178;4.500;2023-08-24T00:30:46;31.10;29.90;32.32;;
66463;Laerm;56827;52.178;4.500;2023-08-24T00:30:56;31.04;29.86;32.40;;
66463;Laerm;56827;52.178;4.500;2023-08-24T00:31:06;31.00;29.43;32.03;;
66463;Laerm;56827;52.178;4.500;2023-08-24T00:31:17;31.15;30.05;34.11;;
66463;Laerm;56827;52.178;4.500;2023-08-24T00:31:27;31.24;29.95;32.55;;
66463;Laerm;56827;52.178;4.500;2023-08-24T00:31:37;31.95;30.71;33.61;;
66463;Laerm;56827;52.178;4.500;2023-08-24T00:31:47;32.28;30.53;34.01;;
66463;Laerm;56827;52.178;4.500;2023-08-24T00:31:58;31.27;30.10;32.97;;
66463;Laerm;56827;52.178;4.500;2023-08-24T00:32:08;31.14;29.97;32.40;;
66463;Laerm;56827;52.178;4.500;2023-08-24T00:32:18;30.75;29.51;31.95;;
66463;Laerm;56827;52.178;4.500;2023-08-24T00:32:28;31.19;29.59;32.28;;
66463;Laerm;56827;52.178;4.500;2023-08-24T00:32:39;30.87;29.50;32.74;;
66463;Laerm;56827;52.178;4.500;2023-08-24T00:32:49;31.16;29.27;32.92;;
66463;Laerm;56827;52.178;4.500;2023-08-24T00:33:00;31.34;29.67;32.69;;
66463;Laerm;56827;52.178;4.500;2023-08-24T00:33:10;31.84;30.27;38.13;;
66463;Laerm;56827;52.178;4.500;2023-08-24T00:33:20;31.38;30.08;32.59;;
66463;Laerm;56827;52.178;4.500;2023-08-24T00:33:31;31.55;30.39;33.52;;
66463;Laerm;56827;52.178;4.500;2023-08-24T00:33:41;31.64;30.13;34.23;;
66463;Laerm;56827;52.178;4.500;2023-08-24T00:33:51;31.53;30.13;34.36;;
66463;Laerm;56827;52.178;4.500;2023-08-24T00:34:01;31.62;29.93;34.29;;
66463;Laerm;56827;52.178;4.500;2023-08-24T00:34:12;31.56;30.03;33.97;;
66463;Laerm;56827;52.178;4.500;2023-08-24T00:34:22;31.61;30.39;33.32;;
66463;Laerm;56827;52.178;4.500;2023-08-24T00:34:32;32.30;30.56;35.13;;
66463;Laerm;56827;52.178;4.500;2023-08-24T00:34:42;31.99;30.62;33.97;;
66463;Laerm;56827;52.178;4.500;2023-08-24T00:34:52;32.14;30.62;34.33;;
66463;Laerm;56827;52.178;4.500;2023-08-24T00:35:03;32.44;30.79;34.67;;
66463;Laerm;56827;52.178;4.500;2023-08-24T00:35:14;31.98;30.61;33.49;;
66463;Laerm;56827;52.178;4.500;2023-08-24T00:35:25;31.51;30.11;32.51;;
66463;Laerm;56827;52.178;4.500;2023-08-24T00:35:35;31.30;30.16;32.61;;
66463;Laerm;56827;52.178;4.500;2023-08-24T00:35:46;31.18;29.50;32.55;;
66463;Laerm;56827;52.178;4.500;2023-08-24T00:35:59;32.13;29.89;34.82;;
66463;Laerm;56827;52.178;4.500;2023-08-24T00:36:10;31.61;29.95;33.44;;
66463;Laerm;56827;52.178;4.500;2023-08-24T00:36:20;31.63;30.04;33.88;;
66463;Laerm;56827;52.178;4.500;2023-08-24T00:36:33;31.65;30.39;32.83;;
66463;Laerm;56827;52.178;4.500;2023-08-24T00:36:43;31.72;29.99;33.10;;
66463;Laerm;56827;52.178;4.500;2023-08-24T00:36:53;32.00;30.66;35.72;;
66463;Laerm;56827;52.178;4.500;2023-08-24T00:37:04;32.97;31.14;34.86;;
66463;Laerm;56827;52.178;4.500;2023-08-24T00:37:14;32.28;30.72;33.86;;
66463;Laerm;56827;52.178;4.500;2023-08-24T00:37:24;32.17;30.69;33.89;;
66463;Laerm;56827;52.178;4.500;2023-08-24T00:37:35;31.52;30.41;32.67;;
66463;Laerm;56827;52.178;4.500;2023-08-24T00:37:45;31.61;30.01;40.54;;
66463;Laerm;56827;52.178;4.500;2023-08-24T00:37:56;31.50;30.06;34.19;;
66463;Laerm;56827;52.178;4.500;2023-08-24T00:38:06;31.22;29.87;32.55;;
66463;Laerm;56827;52.178;4.500;2023-08-24T00:38:16;31.33;30.29;33.67;;
66463;Laerm;56827;52.178;4.500;2023-08-24T00:38:26;31.25;30.04;32.68;;
66463;Laerm;56827;52.178;4.500;2023-08-24T00:38:37;31.53;30.18;36.24;;
66463;Laerm;56827;52.178;4.500;2023-08-24T00:38:47;32.43;30.56;38.65;;
66463;Laerm;56827;52.178;4.500;2023-08-24T00:39:01;32.26;30.09;34.69;;
66463;Laerm;56827;52.178;4.500;2023-08-24T00:39:11;31.29;29.88;35.30;;
66463;Laerm;56827;52.178;4.500;2023-08-24T00:39:22;31.46;29.84;33.56;;
66463;Laerm;56827;52.178;4.500;2023-08-24T00:39:32;31.71;30.15;33.23;;
66463;Laerm;56827;52.178;4.500;2023-08-24T00:39:42;32.87;31.09;35.13;;
66463;Laerm;56827;52.178;4.500;2023-08-24T00:39:53;33.96;31.25;37.98;;
66463;Laerm;56827;52.178;4.500;2023-08-24T00:40:04;32.71;31.36;35.52;;
66463;Laerm;56827;52.178;4.500;2023-08-24T00:40:15;31.71;30.13;33.18;;
66463;Laerm;56827;52.178;4.500;2023-08-24T00:40:26;31.43;29.88;34.17;;
66463;Laerm;56827;52.178;4.500;2023-08-24T00:40:36;31.91;30.36;33.89;;
66463;Laerm;56827;52.178;4.500;2023-08-24T00:40:48;33.96;31.74;35.87;;
66463;Laerm;56827;52.178;4.500;2023-08-24T00:40:59;32.38;30.54;33.91;;
66463;Laerm;56827;52.178;4.500;2023-08-24T00:41:09;33.60;30.61;37.83;;
66463;Laerm;56827;52.178;4.500;2023-08-24T00:41:19;32.48;31.02;33.95;;
66463;Laerm;56827;52.178;4.500;2023-08-24T00:41:31;33.26;31.58;35.96;;
66463;Laerm;56827;52.178;4.500;2023-08-24T00:41:41;33.78;31.20;36.72;;
66463;Laerm;56827;52.178;4.500;2023-08-24T00:41:52;31.84;30.21;33.59;;
66463;Laerm;56827;52.178;4.500;2023-08-24T00:42:02;31.69;30.20;34.43;;
66463;Laerm;56827;52.178;4.500;2023-08-24T00:42:12;32.34;30.51;34.50;;
66463;Laerm;56827;52.178;4.500;2023-08-24T00:42:25;31.64;30.37;34.32;;
66463;Laerm;56827;52.178;4.500;2023-08-24T00:42:42;30.70;29.18;32.01;;
66463;Laerm;56827;52.178;4.500;2023-08-24T00:42:53;30.56;29.55;31.88;;
66463;Laerm;56827;52.178;4.500;2023-08-24T00:43:03;31.13;29.81;32.82;;
66463;Laerm;56827;52.178;4.500;2023-08-24T00:43:14;31.45;30.27;34.57;;
66463;Laerm;56827;52.178;4.500;2023-08-24T00:43:27;32.84;31.23;34.71;;
66463;Laerm;56827;52.178;4.500;2023-08-24T00:43:37;31.80;30.12;34.58;;
66463;Laerm;56827;52.178;4.500;2023-08-24T00:43:48;32.85;31.03;35.14;;
66463;Laerm;56827;52.178;4.500;2023-08-24T00:44:00;31.83;30.13;33.71;;
66463;Laerm;56827;52.178;4.500;2023-08-24T00:44:12;32.04;30.01;35.07;;
66463;Laerm;56827;52.178;4.500;2023-08-24T00:44:22;32.56;30.82;34.64;;
66463;Laerm;56827;52.178;4.500;2023-08-24T00:44:32;32.41;31.17;33.99;;
66463;Laerm;56827;52.178;4.500;2023-08-24T00:44:42;31.90;30.34;33.36;;
66463;Laerm;56827;52.178;4.500;2023-08-24T00:44:53;31.97;30.35;38.56;;
66463;Laerm;56827;52.178;4.500;2023-08-24T00:45:03;31.30;30.16;32.85;;
66463;Laerm;56827;52.178;4.500;2023-08-24T00:45:14;31.33;30.13;33.50;;
66463;Laerm;56827;52.178;4.500;2023-08-24T00:45:24;31.21;29.90;33.04;;
66463;Laerm;56827;52.178;4.500;2023-08-24T00:45:35;31.24;29.44;33.00;;
66463;Laerm;56827;52.178;4.500;2023-08-24T00:45:46;31.15;29.58;34.38;;
66463;Laerm;56827;52.178;4.500;2023-08-24T00:45:56;31.08;29.47;37.37;;
66463;Laerm;56827;52.178;4.500;2023-08-24T00:46:09;30.70;29.46;32.34;;
66463;Laerm;56827;52.178;4.500;2023-08-24T00:46:19;30.62;29.01;36.26;;
66463;Laerm;56827;52.178;4.500;2023-08-24T00:46:29;31.20;29.57;40.63;;
66463;Laerm;56827;52.178;4.500;2023-08-24T00:46:40;30.79;29.38;35.34;;
66463;Laerm;56827;52.178;4.500;2023-08-24T00:46:51;30.66;29.41;34.86;;
66463;Laerm;56827;52.178;4.500;2023-08-24T00:47:01;31.81;29.44;44.57;;
66463;Laerm;56827;52.178;4.500;2023-08-24T00:47:12;30.65;29.51;32.18;;
66463;Laerm;56827;52.178;4.500;2023-08-24T00:47:22;30.66;29.61;34.87;;
66463;Laerm;56827;52.178;4.500;2023-08-24T00:47:32;30.87;29.51;33.09;;
66463;Laerm;56827;52.178;4.500;2023-08-24T00:47:43;31.27;30.23;32.92;;
66463;Laerm;56827;52.178;4.500;2023-08-24T00:47:55;32.04;29.85;34.15;;
66463;Laerm;56827;52.178;4.500;2023-08-24T00:48:05;30.84;29.59;34.50;;
66463;Laerm;56827;52.178;4.500;2023-08-24T00:48:15;30.86;29.39;34.68;;
66463;Laerm;56827;52.178;4.500;2023-08-24T00:48:26;30.76;29.61;35.12;;
66463;Laerm;56827;52.178;4.500;2023-08-24T00:48:38;30.77;29.65;33.59;;
66463;Laerm;56827;52.178;4.500;2023-08-24T00:48:51;31.06;29.52;34.29;;
66463;Laerm;56827;52.178;4.500;2023-08-24T00:49:02;31.12;29.66;32.47;;
66463;Laerm;56827;52.178;4.500;2023-08-24T00:49:13;31.16;29.42;37.85;;
66463;Laerm;56827;52.178;4.500;2023-08-24T00:49:23;30.93;29.67;32.62;;
66463;Laerm;56827;52.178;4.500;2023-08-24T00:49:34;31.08;29.75;33.07;;
66463;Laerm;56827;52.178;4.500;2023-08-24T00:49:44;31.07;29.51;32.53;;
66463;Laerm;56827;52.178;4.500;2023-08-24T00:49:55;31.16;30.00;32.31;;
66463;Laerm;56827;52.178;4.500;2023-08-24T00:50:09;31.29;29.92;32.46;;
66463;Laerm;56827;52.178;4.500;2023-08-24T00:50:19;31.26;29.88;32.82;;
66463;Laerm;56827;52.178;4.500;2023-08-24T00:50:30;31.29;29.68;36.32;;
66463;Laerm;56827;52.178;4.500;2023-08-24T00:50:40;31.20;29.77;32.55;;
66463;Laerm;56827;52.178;4.500;2023-08-24T00:50:50;31.85;30.45;34.19;;
66463;Laerm;56827;52.178;4.500;2023-08-24T00:51:00;31.35;30.17;33.83;;
66463;Laerm;56827;52.178;4.500;2023-08-24T00:51:11;31.90;30.46;33.60;;
66463;Laerm;56827;52.178;4.500;2023-08-24T00:51:21;31.98;30.29;33.61;;
66463;Laerm;56827;52.178;4.500;2023-08-24T00:51:31;31.72;30.17;33.93;;
66463;Laerm;56827;52.178;4.500;2023-08-24T00:51:42;31.41;29.80;34.90;;
66463;Laerm;56827;52.178;4.500;2023-08-24T00:51:52;31.62;30.25;34.34;;
66463;Laerm;56827;52.178;4.500;2023-08-24T00:52:02;31.14;29.43;35.88;;
66463;Laerm;56827;52.178;4.500;2023-08-24T00:52:13;31.53;30.00;35.21;;
66463;Laerm;56827;52.178;4.500;2023-08-24T00:52:25;31.32;30.05;33.39;;
66463;Laerm;56827;52.178;4.500;2023-08-24T00:52:38;31.35;29.90;34.12;;
66463;Laerm;56827;52.178;4.500;2023-08-24T00:52:49;31.45;30.09;33.03;;
66463;Laerm;56827;52.178;4.500;2023-08-24T00:52:59;31.85;30.76;34.14;;
66463;Laerm;56827;52.178;4.500;2023-08-24T00:53:09;32.28;30.71;43.54;;
66463;Laerm;56827;52.178;4.500;2023-08-24T00:53:20;32.79;31.28;35.09;;
66463;Laerm;56827;52.178;4.500;2023-08-24T00:53:31;32.18;30.49;33.91;;
66463;Laerm;56827;52.178;4.500;2023-08-24T00:53:41;31.45;30.14;32.89;;
66463;Laerm;56827;52.178;4.500;2023-08-24T00:53:52;32.26;30.69;35.36;;
66463;Laerm;56827;52.178;4.500;2023-08-24T00:54:03;33.66;31.36;38.27;;
66463;Laerm;56827;52.178;4.500;2023-08-24T00:54:13;33.08;30.80;35.63;;
66463;Laerm;56827;52.178;4.500;2023-08-24T00:54:23;33.51;31.04;36.13;;
66463;Laerm;56827;52.178;4.500;2023-08-24T00:54:34;33.65;31.22;37.83;;
66463;Laerm;56827;52.178;4.500;2023-08-24T00:54:45;34.50;31.82;41.00;;
66463;Laerm;56827;52.178;4.500;2023-08-24T00:54:57;34.66;31.98;41.16;;
66463;Laerm;56827;52.178;4.500;2023-08-24T00:55:09;36.51;33.11;40.86;;
66463;Laerm;56827;52.178;4.500;2023-08-24T00:55:20;37.95;33.25;43.06;;
66463;Laerm;56827;52.178;4.500;2023-08-24T00:55:30;40.94;35.56;44.94;;
66463;Laerm;56827;52.178;4.500;2023-08-24T00:55:41;40.12;36.53;43.09;;
66463;Laerm;56827;52.178;4.500;2023-08-24T00:55:51;40.99;36.26;44.88;;
66463;Laerm;56827;52.178;4.500;2023-08-24T00:56:01;37.61;34.98;41.06;;
66463;Laerm;56827;52.178;4.500;2023-08-24T00:56:12;35.93;31.17;42.29;;
66463;Laerm;56827;52.178;4.500;2023-08-24T00:56:22;32.61;30.54;35.54;;
66463;Laerm;56827;52.178;4.500;2023-08-24T00:56:34;32.46;30.34;36.62;;
66463;Laerm;56827;52.178;4.500;2023-08-24T00:56:45;32.82;31.05;35.87;;
66463;Laerm;56827;52.178;4.500;2023-08-24T00:56:55;32.47;30.73;36.48;;
66463;Laerm;56827;52.178;4.500;2023-08-24T00:57:05;31.83;29.77;43.37;;
66463;Laerm;56827;52.178;4.500;2023-08-24T00:57:16;32.41;30.04;40.61;;
66463;Laerm;56827;52.178;4.500;2023-08-24T00:57:29;32.85;31.04;40.68;;
66463;Laerm;56827;52.178;4.500;2023-08-24T00:57:39;33.67;31.62;44.80;;
66463;Laerm;56827;52.178;4.500;2023-08-24T00:57:50;34.38;31.37;44.14;;
66463;Laerm;56827;52.178;4.500;2023-08-24T00:58:02;35.36;32.66;45.09;;
66463;Laerm;56827;52.178;4.500;2023-08-24T00:58:13;39.15;33.07;53.28;;
66463;Laerm;56827;52.178;4.500;2023-08-24T00:58:23;40.63;34.87;58.09;;
66463;Laerm;56827;52.178;4.500;2023-08-24T00:58:34;41.67;36.07;54.69;;
66463;Laerm;56827;52.178;4.500;2023-08-24T00:58:44;44.17;36.72;57.54;;
66463;Laerm;56827;52.178;4.500;2023-08-24T00:58:56;45.16;38.12;62.16;;
66463;Laerm;56827;52.178;4.500;2023-08-24T00:59:07;46.93;40.15;62.41;;
66463;Laerm;56827;52.178;4.500;2023-08-24T00:59:17;45.08;39.90;54.71;;
66463;Laerm;56827;52.178;4.500;2023-08-24T00:59:27;45.47;39.82;53.94;;
66463;Laerm;56827;52.178;4.500;2023-08-24T00:59:38;45.48;41.08;53.40;;